Airport View

Enter AWOS ICAO identifier for current METAR.

ex. KFNL

KMNH 202030Z AUTO 16011KT 10SM OVC019 10/05 A3020 RMK AO2 LTG DSNT W

20 May 2018 20:58

Frequency: 134.375

Phone: 303-648-3479

Other Area AWOS: KFLY - KAFF - KAPA - KCOS

TAF AMD KAPA 201942Z 2020/2118 04007KT P6SM BKN022 OVC030 FM202200 07006KT P6SM BKN025 BKN035 FM202300 11007KT P6SM SCT035 BKN050 FM210100 14008KT P6SM SCT050 BKN120 TEMPO 2101/2104 VRB15G25KT -TSRA BKN050CB FM210400 21009KT P6SM FEW100 SCT220 FM211400 VRB05KT P6SM FEW140 SCT220